createdAt,value
2023-03-04T00:00:16.570Z,15.37
2023-03-04T00:02:43.342Z,15.00
2023-03-04T00:05:10.201Z,14.10
2023-03-04T00:07:36.996Z,14.17
2023-03-04T00:10:04.582Z,15.37
2023-03-04T00:12:31.355Z,15.83
2023-03-04T00:14:58.065Z,15.83
2023-03-04T00:17:24.805Z,14.07
2023-03-04T00:19:51.511Z,15.10
2023-03-04T00:22:18.351Z,16.23
2023-03-04T00:24:45.039Z,16.57
2023-03-04T00:27:11.658Z,13.60
2023-03-04T00:29:38.948Z,14.27
2023-03-04T00:32:05.788Z,16.70
2023-03-04T00:34:32.984Z,14.40
2023-03-04T00:37:01.514Z,15.83
2023-03-04T00:39:30.692Z,14.53
2023-03-04T00:41:57.364Z,14.43
2023-03-04T00:44:24.030Z,13.70
2023-03-04T00:46:50.666Z,15.50
2023-03-04T00:49:17.346Z,15.00
2023-03-04T00:51:44.066Z,14.47
2023-03-04T00:54:10.726Z,16.67
2023-03-04T00:56:37.325Z,12.87
2023-03-04T00:59:04.085Z,13.83
2023-03-04T01:01:30.821Z,13.93
2023-03-04T01:03:57.513Z,13.83
2023-03-04T01:06:24.169Z,13.03
2023-03-04T01:08:50.762Z,14.10
2023-03-04T01:11:17.406Z,12.97
2023-03-04T01:13:44.174Z,15.23
2023-03-04T01:16:11.216Z,17.57
2023-03-04T01:18:37.902Z,16.67
2023-03-04T01:21:04.876Z,12.87
2023-03-04T01:23:31.574Z,14.53
2023-03-04T01:25:58.231Z,13.70
2023-03-04T01:28:24.879Z,16.10
2023-03-04T01:30:51.515Z,13.17
2023-03-04T01:33:18.240Z,13.50
2023-03-04T01:35:44.983Z,15.00
2023-03-04T01:38:12.658Z,14.70
2023-03-04T01:40:39.380Z,13.77
2023-03-04T01:43:06.186Z,14.70
2023-03-04T01:45:33.613Z,12.40
2023-03-04T01:48:00.366Z,11.20
2023-03-04T01:50:35.841Z,12.17
2023-03-04T01:53:03.753Z,13.33
2023-03-04T01:55:31.188Z,12.37
2023-03-04T01:57:57.849Z,12.90
2023-03-04T02:00:30.722Z,9.57
2023-03-04T02:03:19.550Z,11.60
2023-03-04T02:05:49.908Z,10.70
2023-03-04T02:08:19.213Z,11.00
2023-03-04T02:10:47.114Z,10.53
2023-03-04T02:13:15.048Z,12.70
2023-03-04T02:15:43.042Z,12.10
2023-03-04T02:18:21.741Z,11.77
2023-03-04T02:21:18.862Z,11.63
2023-03-04T02:23:53.603Z,10.20
2023-03-04T02:26:28.263Z,11.13
2023-03-04T02:28:58.162Z,9.87
2023-03-04T02:31:41.612Z,10.63
2023-03-04T02:34:15.878Z,10.83
2023-03-04T02:36:43.930Z,10.60
2023-03-04T02:39:55.506Z,11.67
2023-03-04T02:42:22.162Z,10.10
2023-03-04T02:44:50.342Z,12.07
2023-03-04T02:47:18.651Z,12.13
2023-03-04T02:49:46.233Z,10.97
2023-03-04T02:52:26.594Z,12.00
2023-03-04T02:54:53.311Z,11.87
2023-03-04T02:57:19.917Z,10.90
2023-03-04T02:59:46.609Z,10.80
2023-03-04T03:02:13.202Z,10.27
2023-03-04T03:04:41.008Z,11.70
2023-03-04T03:07:08.462Z,13.67
2023-03-04T03:09:35.143Z,12.23
2023-03-04T03:12:01.843Z,10.23
2023-03-04T03:14:28.527Z,12.83
2023-03-04T03:16:55.146Z,12.93
2023-03-04T03:19:21.744Z,12.77
2023-03-04T03:21:48.485Z,10.80
2023-03-04T03:24:15.249Z,11.13
2023-03-04T03:26:41.918Z,11.80
2023-03-04T03:29:08.592Z,11.77
2023-03-04T03:31:35.519Z,14.00
2023-03-04T03:34:02.205Z,12.60
2023-03-04T03:36:28.907Z,13.20
2023-03-04T03:38:55.641Z,12.57
2023-03-04T03:41:22.259Z,15.93
2023-03-04T03:43:48.867Z,16.20
2023-03-04T03:46:15.511Z,16.43
2023-03-04T03:48:42.169Z,16.40
2023-03-04T03:51:08.804Z,18.67
2023-03-04T03:53:35.436Z,14.17
2023-03-04T03:56:02.036Z,15.47
2023-03-04T03:58:28.686Z,16.60
2023-03-04T04:00:58.139Z,15.57
2023-03-04T04:03:25.345Z,15.83
2023-03-04T04:05:51.998Z,16.03
2023-03-04T04:08:19.151Z,15.07
2023-03-04T04:10:45.814Z,17.63
2023-03-04T04:13:12.785Z,14.20
2023-03-04T04:15:39.833Z,14.87
2023-03-04T04:18:07.473Z,15.57
2023-03-04T04:20:35.102Z,13.73
2023-03-04T04:23:02.715Z,16.57
2023-03-04T04:25:29.314Z,16.10
2023-03-04T04:27:55.929Z,14.67
2023-03-04T04:30:22.560Z,15.77
2023-03-04T04:32:49.187Z,17.70
2023-03-04T04:35:18.025Z,16.17
2023-03-04T04:37:44.685Z,16.17
2023-03-04T04:40:12.040Z,17.73
2023-03-04T04:42:38.630Z,17.87
2023-03-04T04:45:07.200Z,17.60
2023-03-04T04:47:33.852Z,16.20
2023-03-04T04:50:00.756Z,18.07
2023-03-04T04:52:27.401Z,19.57
2023-03-04T04:54:54.066Z,17.17
2023-03-04T04:57:20.840Z,17.60
2023-03-04T04:59:47.504Z,18.10
2023-03-04T05:02:14.175Z,17.53
2023-03-04T05:04:40.813Z,15.00
2023-03-04T05:07:07.473Z,19.13
2023-03-04T05:09:34.278Z,18.10
2023-03-04T05:12:00.966Z,21.20
2023-03-04T05:14:27.576Z,18.50
2023-03-04T05:16:54.304Z,17.97
2023-03-04T05:19:24.340Z,16.70
2023-03-04T05:21:50.993Z,18.93
2023-03-04T05:24:17.700Z,16.23
2023-03-04T05:26:44.328Z,15.07
2023-03-04T05:29:12.702Z,19.17
2023-03-04T05:31:39.413Z,17.57
2023-03-04T05:34:06.039Z,18.87
2023-03-04T05:36:32.834Z,22.50
2023-03-04T05:38:59.472Z,19.73
2023-03-04T05:41:26.097Z,17.20
2023-03-04T05:43:52.751Z,18.90
2023-03-04T05:46:25.305Z,20.30
2023-03-04T05:49:07.792Z,21.83
2023-03-04T05:51:34.404Z,23.10
2023-03-04T05:54:01.032Z,22.37
2023-03-04T05:56:30.279Z,20.73
2023-03-04T05:58:59.003Z,21.07
2023-03-04T06:01:26.190Z,20.07
2023-03-04T06:03:53.033Z,22.87
2023-03-04T06:06:19.745Z,17.13
2023-03-04T06:08:46.357Z,20.60
2023-03-04T06:11:13.002Z,19.10
2023-03-04T06:13:40.146Z,16.97
2023-03-04T06:16:07.247Z,23.17
2023-03-04T06:18:33.912Z,22.43
2023-03-04T06:21:02.152Z,20.57
2023-03-04T06:23:30.639Z,20.80
2023-03-04T06:25:59.369Z,19.43
2023-03-04T06:28:26.461Z,15.40
2023-03-04T06:30:53.569Z,20.53
2023-03-04T06:33:20.657Z,22.80
2023-03-04T06:35:47.650Z,18.17
2023-03-04T06:38:14.658Z,20.13
2023-03-04T06:40:41.275Z,21.57
2023-03-04T06:43:07.917Z,22.33
2023-03-04T06:45:34.543Z,19.40
2023-03-04T06:48:01.226Z,19.90
2023-03-04T06:50:27.916Z,18.83
2023-03-04T06:52:56.862Z,19.47
2023-03-04T06:55:24.849Z,17.83
2023-03-04T06:57:51.624Z,19.57
2023-03-04T07:00:19.460Z,18.20
2023-03-04T07:02:46.172Z,19.07
2023-03-04T07:05:12.814Z,19.50
2023-03-04T07:07:39.472Z,19.40
2023-03-04T07:10:06.828Z,17.60
2023-03-04T07:12:33.504Z,21.30
2023-03-04T07:15:00.186Z,22.57
2023-03-04T07:17:26.888Z,21.50
2023-03-04T07:19:53.522Z,21.43
2023-03-04T07:22:20.183Z,26.97
2023-03-04T07:24:46.761Z,20.00
2023-03-04T07:27:13.386Z,18.90
2023-03-04T07:29:42.990Z,20.03
2023-03-04T07:32:10.291Z,19.33
2023-03-04T07:34:37.209Z,19.30
2023-03-04T07:37:03.960Z,20.27
2023-03-04T07:39:30.627Z,23.57
2023-03-04T07:41:57.239Z,22.80
2023-03-04T07:44:23.928Z,19.13
2023-03-04T07:46:50.575Z,19.83
2023-03-04T07:49:17.334Z,21.37
2023-03-04T07:51:43.965Z,17.07
2023-03-04T07:54:10.969Z,20.27
2023-03-04T07:56:37.928Z,21.83
2023-03-04T07:59:05.004Z,22.30
2023-03-04T08:01:39.842Z,20.20
2023-03-04T08:04:08.003Z,18.90
2023-03-04T08:06:35.017Z,17.87
2023-03-04T08:09:06.405Z,17.90
2023-03-04T08:11:36.051Z,19.77
2023-03-04T08:14:02.967Z,22.77
2023-03-04T08:16:30.200Z,18.23
2023-03-04T08:18:58.929Z,16.97
2023-03-04T08:21:26.665Z,18.43
2023-03-04T08:23:54.300Z,19.03
2023-03-04T08:26:25.883Z,22.27
2023-03-04T08:28:53.587Z,17.53
2023-03-04T08:31:21.003Z,17.07
2023-03-04T08:33:48.660Z,17.30
2023-03-04T08:36:16.036Z,18.83
2023-03-04T08:38:42.988Z,17.73
2023-03-04T08:41:09.727Z,17.43
2023-03-04T08:43:36.692Z,18.63
2023-03-04T08:46:03.832Z,19.63
2023-03-04T08:48:30.523Z,21.93
2023-03-04T08:50:57.259Z,18.37
2023-03-04T08:53:24.333Z,21.47
2023-03-04T08:55:52.576Z,20.27
2023-03-04T08:58:19.785Z,18.73
2023-03-04T09:00:48.476Z,21.73
2023-03-04T09:03:15.949Z,21.17
2023-03-04T09:05:44.449Z,18.60
2023-03-04T09:08:11.143Z,19.97
2023-03-04T09:10:37.999Z,23.27
2023-03-04T09:13:06.217Z,22.60
2023-03-04T09:15:36.004Z,20.33
2023-03-04T09:18:03.986Z,21.10
2023-03-04T09:20:32.081Z,28.53
2023-03-04T09:22:58.795Z,20.43
2023-03-04T09:25:25.423Z,19.93
2023-03-04T09:27:52.086Z,20.13
2023-03-04T09:30:19.081Z,20.57
2023-03-04T09:32:45.781Z,17.57
2023-03-04T09:35:12.695Z,20.50
2023-03-04T09:37:41.485Z,20.00
2023-03-04T09:40:11.622Z,22.77
2023-03-04T09:42:47.391Z,19.20
2023-03-04T09:45:19.465Z,21.17
2023-03-04T09:47:48.123Z,18.73
2023-03-04T09:50:14.806Z,20.33
2023-03-04T09:52:47.235Z,20.33
2023-03-04T09:55:17.079Z,21.30
2023-03-04T09:57:46.161Z,19.50
2023-03-04T10:00:25.962Z,20.40
2023-03-04T10:03:13.911Z,25.10
2023-03-04T10:05:52.551Z,21.90
2023-03-04T10:08:29.301Z,20.37
2023-03-04T10:10:58.874Z,20.43
2023-03-04T10:13:49.668Z,18.77
2023-03-04T10:16:21.702Z,21.30
2023-03-04T10:19:14.386Z,20.77
2023-03-04T10:21:45.140Z,19.03
2023-03-04T10:24:22.452Z,18.67
2023-03-04T10:26:53.713Z,21.13
2023-03-04T10:29:22.774Z,18.33
2023-03-04T10:31:49.826Z,20.73
2023-03-04T10:34:17.651Z,20.50
2023-03-04T10:36:44.547Z,22.60
2023-03-04T10:39:26.070Z,20.03
2023-03-04T10:42:07.309Z,21.67
2023-03-04T10:44:35.618Z,19.70
2023-03-04T10:47:02.457Z,17.07
2023-03-04T10:49:29.711Z,21.20
2023-03-04T10:52:37.967Z,20.43
2023-03-04T10:55:14.497Z,22.40
2023-03-04T10:57:44.624Z,17.77
2023-03-04T11:00:26.229Z,16.30
2023-03-04T11:02:55.766Z,19.13
2023-03-04T11:05:25.036Z,19.83
2023-03-04T11:07:56.351Z,21.63
2023-03-04T11:10:38.808Z,16.53
2023-03-04T11:13:12.442Z,22.07
2023-03-04T11:16:04.594Z,18.93
2023-03-04T11:18:48.090Z,18.47
2023-03-04T11:21:19.229Z,20.60
2023-03-04T11:24:22.277Z,21.30
2023-03-04T11:27:05.240Z,22.27
2023-03-04T11:29:55.518Z,17.50
2023-03-04T11:32:28.167Z,15.83
2023-03-04T11:35:08.677Z,20.40
2023-03-04T11:37:54.308Z,17.43
2023-03-04T11:40:49.590Z,21.57
2023-03-04T11:43:22.330Z,18.23
2023-03-04T11:46:01.752Z,21.03
2023-03-04T11:48:48.083Z,19.57
2023-03-04T11:51:28.900Z,20.03
2023-03-04T11:54:19.045Z,17.53
2023-03-04T11:56:50.350Z,19.37
2023-03-04T11:59:42.932Z,17.40
2023-03-04T12:02:22.849Z,19.53
2023-03-04T12:05:20.927Z,21.50
2023-03-04T12:08:03.945Z,17.30
2023-03-04T12:10:57.121Z,22.80
2023-03-04T12:13:36.127Z,20.43
2023-03-04T12:16:26.802Z,21.83
2023-03-04T12:19:13.661Z,20.70
2023-03-04T12:22:14.098Z,21.03
2023-03-04T12:25:18.018Z,23.23
2023-03-04T12:28:06.923Z,21.87
2023-03-04T12:30:48.425Z,20.60
2023-03-04T12:33:59.877Z,19.33
2023-03-04T12:36:46.389Z,17.00
2023-03-04T12:39:23.860Z,20.60
2023-03-04T12:42:37.266Z,19.73
2023-03-04T12:45:32.030Z,22.63
2023-03-04T12:48:17.484Z,18.60
2023-03-04T12:51:12.258Z,21.97
2023-03-04T12:53:56.463Z,20.93
2023-03-04T12:56:28.900Z,21.17
2023-03-04T12:58:56.774Z,19.27
2023-03-04T13:01:26.755Z,18.67
2023-03-04T13:04:05.896Z,17.57
2023-03-04T13:06:45.450Z,19.07
2023-03-04T13:09:23.741Z,19.43
2023-03-04T13:12:03.084Z,22.73
2023-03-04T13:14:31.483Z,19.07
2023-03-04T13:17:22.730Z,19.30
2023-03-04T13:20:24.353Z,17.77
2023-03-04T13:22:59.604Z,25.10
2023-03-04T13:25:35.607Z,19.37
2023-03-04T13:28:15.487Z,21.83
2023-03-04T13:30:55.807Z,19.17
2023-03-04T13:33:22.592Z,21.47
2023-03-04T13:35:59.861Z,21.90
2023-03-04T13:38:36.377Z,21.47
2023-03-04T13:41:40.434Z,27.87
2023-03-04T13:44:57.054Z,18.17
2023-03-04T13:47:33.600Z,22.20
2023-03-04T13:50:24.126Z,21.40
2023-03-04T13:52:51.013Z,22.40
2023-03-04T13:55:38.330Z,23.40
2023-03-04T13:58:34.863Z,23.90
2023-03-04T14:01:04.868Z,20.67
2023-03-04T14:03:33.175Z,20.17
2023-03-04T14:06:10.336Z,18.03
2023-03-04T14:08:37.865Z,24.23
2023-03-04T14:11:15.644Z,22.53
2023-03-04T14:13:43.028Z,21.07
2023-03-04T14:16:10.178Z,19.90
2023-03-04T14:18:38.127Z,21.67
2023-03-04T14:21:05.602Z,25.50
2023-03-04T14:23:36.852Z,22.47
2023-03-04T14:26:04.573Z,18.50
2023-03-04T14:28:31.332Z,17.27
2023-03-04T14:30:58.262Z,20.13
2023-03-04T14:33:30.343Z,22.63
2023-03-04T14:36:01.008Z,18.07
2023-03-04T14:38:38.065Z,50.77
2023-03-04T14:41:20.899Z,20.50
2023-03-04T14:44:14.813Z,21.17
2023-03-04T14:47:00.536Z,20.87
2023-03-04T14:49:35.259Z,22.80
2023-03-04T14:52:02.108Z,20.87
2023-03-04T14:54:41.507Z,21.63
2023-03-04T14:57:26.606Z,18.93
2023-03-04T14:59:57.396Z,14.13
2023-03-04T15:02:35.435Z,16.33
2023-03-04T15:05:16.856Z,15.23
2023-03-04T15:07:51.817Z,20.73
2023-03-04T15:10:24.738Z,19.93
2023-03-04T15:12:55.077Z,22.57
2023-03-04T15:15:31.495Z,20.67
2023-03-04T15:18:04.641Z,17.90
2023-03-04T15:20:32.846Z,19.77
2023-03-04T15:23:07.548Z,16.97
2023-03-04T15:25:35.151Z,20.63
2023-03-04T15:28:03.024Z,22.63
2023-03-04T15:30:34.183Z,16.00
2023-03-04T15:33:01.152Z,20.00
2023-03-04T15:35:31.821Z,15.23
2023-03-04T15:38:01.092Z,17.07
2023-03-04T15:40:39.510Z,21.97
2023-03-04T15:43:07.110Z,19.70
2023-03-04T15:45:36.913Z,18.00
2023-03-04T15:48:07.730Z,25.27
2023-03-04T15:50:37.672Z,19.03
2023-03-04T15:53:16.793Z,21.00
2023-03-04T15:55:45.591Z,15.87
2023-03-04T15:58:13.217Z,20.27
2023-03-04T16:00:39.934Z,19.87
2023-03-04T16:03:06.620Z,17.33
2023-03-04T16:05:37.934Z,21.50
2023-03-04T16:08:04.762Z,19.43
2023-03-04T16:10:33.245Z,18.10
2023-03-04T16:12:59.895Z,15.63
2023-03-04T16:15:29.929Z,20.13
2023-03-04T16:17:57.565Z,15.73
2023-03-04T16:20:27.748Z,23.23
2023-03-04T16:22:57.702Z,19.97
2023-03-04T16:25:24.798Z,18.13
2023-03-04T16:27:56.411Z,20.57
2023-03-04T16:30:25.639Z,17.33
2023-03-04T16:32:52.903Z,19.10
2023-03-04T16:35:20.456Z,18.13
2023-03-04T16:37:47.468Z,18.90
2023-03-04T16:40:17.021Z,20.37
2023-03-04T16:42:43.857Z,23.47
2023-03-04T16:45:18.268Z,17.17
2023-03-04T16:47:45.537Z,21.03
2023-03-04T16:50:18.185Z,25.10
2023-03-04T16:52:47.184Z,20.03
2023-03-04T16:55:28.583Z,14.77
2023-03-04T16:57:57.617Z,18.43
2023-03-04T17:00:26.922Z,18.50
2023-03-04T17:02:55.621Z,19.20
2023-03-04T17:05:24.439Z,25.80
2023-03-04T17:07:51.188Z,15.67
2023-03-04T17:10:18.132Z,21.03
2023-03-04T17:12:45.119Z,17.80
2023-03-04T17:15:14.112Z,17.40
2023-03-04T17:17:42.244Z,15.60
2023-03-04T17:20:11.435Z,19.97
2023-03-04T17:22:38.169Z,16.20
2023-03-04T17:25:05.483Z,15.23
2023-03-04T17:27:32.092Z,16.40
2023-03-04T17:29:58.804Z,20.03
2023-03-04T17:32:27.457Z,19.20
2023-03-04T17:34:56.878Z,15.10
2023-03-04T17:37:23.548Z,20.57
2023-03-04T17:39:50.351Z,17.70
2023-03-04T17:42:17.307Z,17.33
2023-03-04T17:44:45.335Z,20.03
2023-03-04T17:47:15.162Z,14.63
2023-03-04T17:49:41.947Z,21.33
2023-03-04T17:52:08.706Z,18.73
2023-03-04T17:54:36.581Z,18.73
2023-03-04T17:57:03.522Z,19.73
2023-03-04T17:59:30.243Z,21.47
2023-03-04T18:01:56.981Z,21.20
2023-03-04T18:04:23.708Z,20.27
2023-03-04T18:06:50.334Z,23.90
2023-03-04T18:09:16.998Z,15.97
2023-03-04T18:11:43.657Z,21.17
2023-03-04T18:14:12.596Z,19.30
2023-03-04T18:16:40.408Z,25.37
2023-03-04T18:19:09.246Z,19.63
2023-03-04T18:21:36.351Z,17.93
2023-03-04T18:24:03.077Z,21.17
2023-03-04T18:26:30.165Z,22.23
2023-03-04T18:28:56.963Z,15.23
2023-03-04T18:31:28.806Z,25.97
2023-03-04T18:33:56.954Z,23.30
2023-03-04T18:36:23.930Z,16.13
2023-03-04T18:38:50.990Z,16.83
2023-03-04T18:41:17.742Z,20.30
2023-03-04T18:43:46.835Z,18.07
2023-03-04T18:46:27.725Z,16.33
2023-03-04T18:48:58.906Z,18.60
2023-03-04T18:51:25.557Z,14.53
2023-03-04T18:53:52.277Z,21.70
2023-03-04T18:56:27.974Z,14.10
2023-03-04T18:58:54.866Z,12.60
2023-03-04T19:01:24.927Z,14.63
2023-03-04T19:03:52.664Z,12.27
2023-03-04T19:06:19.398Z,19.30
2023-03-04T19:08:46.047Z,14.57
2023-03-04T19:11:13.098Z,20.13
2023-03-04T19:13:39.737Z,18.23
2023-03-04T19:16:06.703Z,14.67
2023-03-04T19:18:33.776Z,19.67
2023-03-04T19:21:00.773Z,14.70
2023-03-04T19:23:29.251Z,14.53
2023-03-04T19:25:58.612Z,16.43
2023-03-04T19:28:25.321Z,16.53
2023-03-04T19:30:53.867Z,17.00
2023-03-04T19:33:20.681Z,17.97
2023-03-04T19:35:47.621Z,13.53
2023-03-04T19:38:14.478Z,20.20
2023-03-04T19:40:42.351Z,19.80
2023-03-04T19:43:09.195Z,13.70
2023-03-04T19:45:35.942Z,15.40
2023-03-04T19:48:03.190Z,18.77
2023-03-04T19:50:33.426Z,15.73
2023-03-04T19:53:01.355Z,23.33
2023-03-04T19:55:28.080Z,19.00
2023-03-04T19:58:03.818Z,16.57
2023-03-04T20:00:30.562Z,15.00
2023-03-04T20:02:57.359Z,18.30
2023-03-04T20:05:23.993Z,16.97
2023-03-04T20:07:50.724Z,19.10
2023-03-04T20:10:18.781Z,18.07
2023-03-04T20:12:45.498Z,16.87
2023-03-04T20:15:12.256Z,19.40
2023-03-04T20:17:38.937Z,14.30
2023-03-04T20:20:07.476Z,15.03
2023-03-04T20:22:34.551Z,20.27
2023-03-04T20:25:01.205Z,19.87
2023-03-04T20:27:27.831Z,17.57
2023-03-04T20:29:55.076Z,18.40
2023-03-04T20:32:22.244Z,15.27
2023-03-04T20:34:53.878Z,18.43
2023-03-04T20:37:21.046Z,20.33
2023-03-04T20:39:47.717Z,15.93
2023-03-04T20:42:14.472Z,18.53
2023-03-04T20:44:41.122Z,20.63
2023-03-04T20:47:07.917Z,23.17
2023-03-04T20:49:34.631Z,19.07
2023-03-04T20:52:06.149Z,17.93
2023-03-04T20:54:34.491Z,16.93
2023-03-04T20:57:01.282Z,18.53
2023-03-04T20:59:28.211Z,17.37
2023-03-04T21:01:54.947Z,22.30
2023-03-04T21:04:23.081Z,20.43
2023-03-04T21:06:51.609Z,17.77
2023-03-04T21:09:20.828Z,19.83
2023-03-04T21:11:49.204Z,20.93
2023-03-04T21:14:23.060Z,19.90
2023-03-04T21:16:51.724Z,18.40
2023-03-04T21:19:27.500Z,22.43
2023-03-04T21:21:55.821Z,22.97
2023-03-04T21:24:25.686Z,21.83
2023-03-04T21:26:52.423Z,23.17
2023-03-04T21:29:21.956Z,21.37
2023-03-04T21:32:09.933Z,25.73
2023-03-04T21:34:48.253Z,23.03
2023-03-04T21:37:15.013Z,25.80
2023-03-04T21:39:41.631Z,24.77
2023-03-04T21:42:08.304Z,21.50
2023-03-04T21:44:48.583Z,24.93
2023-03-04T21:47:16.779Z,26.87
2023-03-04T21:49:44.313Z,25.90
2023-03-04T21:52:11.292Z,27.33
2023-03-04T21:54:37.992Z,26.57
2023-03-04T21:57:04.738Z,26.53
2023-03-04T21:59:31.473Z,26.23
2023-03-04T22:01:58.156Z,24.03
2023-03-04T22:04:24.860Z,21.70
2023-03-04T22:06:51.560Z,29.27
2023-03-04T22:09:18.335Z,30.27
2023-03-04T22:11:47.430Z,26.10
2023-03-04T22:14:14.089Z,27.13
2023-03-04T22:16:54.151Z,25.43
2023-03-04T22:19:23.046Z,27.00
2023-03-04T22:21:51.234Z,30.00
2023-03-04T22:24:18.427Z,26.03
2023-03-04T22:26:45.166Z,21.87
2023-03-04T22:29:12.076Z,26.53
2023-03-04T22:31:39.141Z,23.10
2023-03-04T22:34:12.076Z,22.00
2023-03-04T22:36:42.088Z,23.30
2023-03-04T22:39:12.750Z,25.67
2023-03-04T22:41:39.530Z,28.00
2023-03-04T22:44:06.483Z,29.80
2023-03-04T22:46:35.644Z,25.67
2023-03-04T22:49:05.549Z,26.77
2023-03-04T22:51:32.637Z,26.07
2023-03-04T22:53:59.256Z,28.03
2023-03-04T22:56:25.890Z,30.90
2023-03-04T22:58:52.763Z,25.53
2023-03-04T23:01:20.401Z,23.37
2023-03-04T23:03:48.388Z,31.03
2023-03-04T23:06:21.135Z,33.73
2023-03-04T23:08:49.832Z,26.80
2023-03-04T23:11:22.661Z,26.47
2023-03-04T23:13:50.477Z,25.63
2023-03-04T23:16:18.955Z,34.20
2023-03-04T23:18:47.245Z,27.53
2023-03-04T23:21:17.499Z,30.37
2023-03-04T23:23:44.922Z,29.07
2023-03-04T23:26:24.515Z,25.77
2023-03-04T23:28:51.396Z,35.37
2023-03-04T23:31:18.943Z,34.90
2023-03-04T23:33:47.533Z,32.20
2023-03-04T23:36:17.648Z,27.50
2023-03-04T23:38:48.322Z,35.10
2023-03-04T23:41:19.207Z,33.60
2023-03-04T23:43:46.479Z,31.57
2023-03-04T23:46:13.560Z,29.23
2023-03-04T23:48:43.158Z,33.43
2023-03-04T23:51:10.710Z,30.80
2023-03-04T23:53:40.876Z,31.40
2023-03-04T23:56:15.961Z,32.77
2023-03-04T23:58:42.787Z,39.27
